sensor_id;sensor_type;location;lat;lon;timestamp;temperature;humidity
19908;DHT22;10116;53.112;7.356;2023-03-21T00:01:52;25.20;29.70
19908;DHT22;10116;53.112;7.356;2023-03-21T00:04:19;25.20;29.40
19908;DHT22;10116;53.112;7.356;2023-03-21T00:06:45;25.20;30.00
19908;DHT22;10116;53.112;7.356;2023-03-21T00:09:11;25.20;30.00
19908;DHT22;10116;53.112;7.356;2023-03-21T00:11:36;25.20;30.00
19908;DHT22;10116;53.112;7.356;2023-03-21T00:14:02;25.20;29.70
19908;DHT22;10116;53.112;7.356;2023-03-21T00:16:28;25.20;30.00
19908;DHT22;10116;53.112;7.356;2023-03-21T00:18:55;25.20;30.00
19908;DHT22;10116;53.112;7.356;2023-03-21T00:21:22;25.20;29.70
19908;DHT22;10116;53.112;7.356;2023-03-21T00:23:57;25.20;30.20
19908;DHT22;10116;53.112;7.356;2023-03-21T00:26:23;25.20;30.30
19908;DHT22;10116;53.112;7.356;2023-03-21T00:28:49;25.20;30.20
19908;DHT22;10116;53.112;7.356;2023-03-21T00:31:15;25.20;29.50
19908;DHT22;10116;53.112;7.356;2023-03-21T00:33:42;25.20;30.30
19908;DHT22;10116;53.112;7.356;2023-03-21T00:36:08;25.20;30.00
19908;DHT22;10116;53.112;7.356;2023-03-21T00:38:35;25.20;30.40
19908;DHT22;10116;53.112;7.356;2023-03-21T00:41:05;25.20;30.50
19908;DHT22;10116;53.112;7.356;2023-03-21T00:43:31;25.20;29.90
19908;DHT22;10116;53.112;7.356;2023-03-21T00:45:58;25.20;29.70
19908;DHT22;10116;53.112;7.356;2023-03-21T00:48:24;25.20;30.20
19908;DHT22;10116;53.112;7.356;2023-03-21T00:50:53;25.10;30.00
19908;DHT22;10116;53.112;7.356;2023-03-21T00:53:19;25.20;30.10
19908;DHT22;10116;53.112;7.356;2023-03-21T00:55:44;25.20;30.50
19908;DHT22;10116;53.112;7.356;2023-03-21T00:58:10;25.10;30.20
19908;DHT22;10116;53.112;7.356;2023-03-21T01:00:36;25.10;30.30
19908;DHT22;10116;53.112;7.356;2023-03-21T01:03:06;25.10;30.20
19908;DHT22;10116;53.112;7.356;2023-03-21T01:05:53;25.10;30.00
19908;DHT22;10116;53.112;7.356;2023-03-21T01:08:37;25.10;29.80
19908;DHT22;10116;53.112;7.356;2023-03-21T01:11:06;25.10;30.20
19908;DHT22;10116;53.112;7.356;2023-03-21T01:13:33;25.10;29.80
19908;DHT22;10116;53.112;7.356;2023-03-21T01:15:59;25.10;30.40
19908;DHT22;10116;53.112;7.356;2023-03-21T01:18:28;25.10;30.40
19908;DHT22;10116;53.112;7.356;2023-03-21T01:20:56;25.10;29.80
19908;DHT22;10116;53.112;7.356;2023-03-21T01:23:23;25.10;29.50
19908;DHT22;10116;53.112;7.356;2023-03-21T01:25:50;25.10;30.10
19908;DHT22;10116;53.112;7.356;2023-03-21T01:28:16;25.10;29.90
19908;DHT22;10116;53.112;7.356;2023-03-21T01:30:49;25.10;30.60
19908;DHT22;10116;53.112;7.356;2023-03-21T01:33:16;25.10;29.80
19908;DHT22;10116;53.112;7.356;2023-03-21T01:35:43;25.10;30.00
19908;DHT22;10116;53.112;7.356;2023-03-21T01:38:09;25.10;29.90
19908;DHT22;10116;53.112;7.356;2023-03-21T01:40:35;25.10;30.70
19908;DHT22;10116;53.112;7.356;2023-03-21T01:43:01;25.10;30.70
19908;DHT22;10116;53.112;7.356;2023-03-21T01:48:31;25.10;29.90
19908;DHT22;10116;53.112;7.356;2023-03-21T01:50:59;25.10;29.90
19908;DHT22;10116;53.112;7.356;2023-03-21T01:53:27;25.10;30.00
19908;DHT22;10116;53.112;7.356;2023-03-21T01:55:59;25.10;30.20
19908;DHT22;10116;53.112;7.356;2023-03-21T01:58:26;25.10;30.70
19908;DHT22;10116;53.112;7.356;2023-03-21T02:00:52;25.10;30.30
19908;DHT22;10116;53.112;7.356;2023-03-21T02:03:20;25.10;30.30
19908;DHT22;10116;53.112;7.356;2023-03-21T02:06:08;25.10;30.70
19908;DHT22;10116;53.112;7.356;2023-03-21T02:08:35;25.10;30.50
19908;DHT22;10116;53.112;7.356;2023-03-21T02:11:01;25.00;30.00
19908;DHT22;10116;53.112;7.356;2023-03-21T02:13:27;25.10;30.80
19908;DHT22;10116;53.112;7.356;2023-03-21T02:18:32;25.00;30.30
19908;DHT22;10116;53.112;7.356;2023-03-21T02:29:20;25.20;32.00
19908;DHT22;10116;53.112;7.356;2023-03-21T02:32:06;25.20;32.90
19908;DHT22;10116;53.112;7.356;2023-03-21T02:37:40;25.30;33.40
19908;DHT22;10116;53.112;7.356;2023-03-21T02:40:41;25.30;33.60
19908;DHT22;10116;53.112;7.356;2023-03-21T02:43:27;25.30;34.40
19908;DHT22;10116;53.112;7.356;2023-03-21T02:46:00;25.30;34.00
19908;DHT22;10116;53.112;7.356;2023-03-21T02:48:47;25.30;34.80
19908;DHT22;10116;53.112;7.356;2023-03-21T02:51:17;25.30;34.20
19908;DHT22;10116;53.112;7.356;2023-03-21T02:53:47;25.30;34.00
19908;DHT22;10116;53.112;7.356;2023-03-21T02:56:14;25.30;34.30
19908;DHT22;10116;53.112;7.356;2023-03-21T02:58:41;25.30;34.60
19908;DHT22;10116;53.112;7.356;2023-03-21T03:01:07;25.30;34.10
19908;DHT22;10116;53.112;7.356;2023-03-21T03:03:34;25.40;34.30
19908;DHT22;10116;53.112;7.356;2023-03-21T03:06:02;25.30;34.30
19908;DHT22;10116;53.112;7.356;2023-03-21T03:11:35;25.30;34.40
19908;DHT22;10116;53.112;7.356;2023-03-21T03:14:32;25.30;33.80
19908;DHT22;10116;53.112;7.356;2023-03-21T03:17:19;25.30;33.40
19908;DHT22;10116;53.112;7.356;2023-03-21T03:20:19;25.30;34.20
19908;DHT22;10116;53.112;7.356;2023-03-21T03:25:38;25.30;33.90
19908;DHT22;10116;53.112;7.356;2023-03-21T03:28:07;25.30;33.20
19908;DHT22;10116;53.112;7.356;2023-03-21T03:30:33;25.30;33.70
19908;DHT22;10116;53.112;7.356;2023-03-21T03:33:02;25.30;34.50
19908;DHT22;10116;53.112;7.356;2023-03-21T03:35:31;25.30;33.20
19908;DHT22;10116;53.112;7.356;2023-03-21T03:38:00;25.30;33.10
19908;DHT22;10116;53.112;7.356;2023-03-21T03:41:04;25.20;33.90
19908;DHT22;10116;53.112;7.356;2023-03-21T03:43:39;25.30;33.90
19908;DHT22;10116;53.112;7.356;2023-03-21T03:46:27;25.20;45.10
19908;DHT22;10116;53.112;7.356;2023-03-21T03:48:57;25.20;33.70
19908;DHT22;10116;53.112;7.356;2023-03-21T03:52:04;25.30;33.40
19908;DHT22;10116;53.112;7.356;2023-03-21T03:54:37;25.30;34.30
19908;DHT22;10116;53.112;7.356;2023-03-21T03:57:05;25.30;33.80
19908;DHT22;10116;53.112;7.356;2023-03-21T03:59:34;25.30;33.60
19908;DHT22;10116;53.112;7.356;2023-03-21T04:02:00;25.30;33.70
19908;DHT22;10116;53.112;7.356;2023-03-21T04:04:25;25.30;35.00
19908;DHT22;10116;53.112;7.356;2023-03-21T04:06:54;25.30;34.00
19908;DHT22;10116;53.112;7.356;2023-03-21T04:09:20;25.30;34.10
19908;DHT22;10116;53.112;7.356;2023-03-21T04:11:46;25.30;34.00
19908;DHT22;10116;53.112;7.356;2023-03-21T04:14:12;25.30;34.20
19908;DHT22;10116;53.112;7.356;2023-03-21T04:16:37;25.30;34.10
19908;DHT22;10116;53.112;7.356;2023-03-21T04:19:03;25.30;34.00
19908;DHT22;10116;53.112;7.356;2023-03-21T04:21:29;25.30;34.60
19908;DHT22;10116;53.112;7.356;2023-03-21T04:23:54;25.30;34.00
19908;DHT22;10116;53.112;7.356;2023-03-21T04:26:21;25.30;33.80
19908;DHT22;10116;53.112;7.356;2023-03-21T04:28:48;25.30;34.20
19908;DHT22;10116;53.112;7.356;2023-03-21T04:31:13;25.30;34.60
19908;DHT22;10116;53.112;7.356;2023-03-21T04:33:40;25.40;34.80
19908;DHT22;10116;53.112;7.356;2023-03-21T04:36:06;25.40;35.80
19908;DHT22;10116;53.112;7.356;2023-03-21T04:38:34;25.50;36.10
19908;DHT22;10116;53.112;7.356;2023-03-21T04:41:00;25.50;37.40
19908;DHT22;10116;53.112;7.356;2023-03-21T04:43:27;25.60;37.40
19908;DHT22;10116;53.112;7.356;2023-03-21T04:45:53;25.60;37.70
19908;DHT22;10116;53.112;7.356;2023-03-21T04:48:19;25.60;37.80
19908;DHT22;10116;53.112;7.356;2023-03-21T04:50:49;25.60;37.90
19908;DHT22;10116;53.112;7.356;2023-03-21T04:53:15;25.70;50.00
19908;DHT22;10116;53.112;7.356;2023-03-21T04:55:40;25.70;37.70
19908;DHT22;10116;53.112;7.356;2023-03-21T04:58:06;25.70;38.10
19908;DHT22;10116;53.112;7.356;2023-03-21T05:00:32;25.70;37.80
19908;DHT22;10116;53.112;7.356;2023-03-21T05:03:03;25.70;38.20
19908;DHT22;10116;53.112;7.356;2023-03-21T05:05:29;25.70;37.90
19908;DHT22;10116;53.112;7.356;2023-03-21T05:07:56;25.70;37.90
19908;DHT22;10116;53.112;7.356;2023-03-21T05:10:22;25.70;37.40
19908;DHT22;10116;53.112;7.356;2023-03-21T05:12:47;25.70;37.70
19908;DHT22;10116;53.112;7.356;2023-03-21T05:15:13;25.60;36.70
19908;DHT22;10116;53.112;7.356;2023-03-21T05:17:38;25.60;37.60
19908;DHT22;10116;53.112;7.356;2023-03-21T05:20:08;25.60;36.90
19908;DHT22;10116;53.112;7.356;2023-03-21T05:22:35;25.60;36.80
19908;DHT22;10116;53.112;7.356;2023-03-21T05:25:06;25.60;36.80
19908;DHT22;10116;53.112;7.356;2023-03-21T05:27:33;25.60;36.40
19908;DHT22;10116;53.112;7.356;2023-03-21T05:30:11;25.60;36.30
19908;DHT22;10116;53.112;7.356;2023-03-21T05:32:36;25.60;37.10
19908;DHT22;10116;53.112;7.356;2023-03-21T05:35:02;25.60;36.30
19908;DHT22;10116;53.112;7.356;2023-03-21T05:37:28;25.60;36.90
19908;DHT22;10116;53.112;7.356;2023-03-21T05:39:53;25.60;36.10
19908;DHT22;10116;53.112;7.356;2023-03-21T05:42:19;25.60;36.90
19908;DHT22;10116;53.112;7.356;2023-03-21T05:44:45;25.60;37.10
19908;DHT22;10116;53.112;7.356;2023-03-21T05:47:12;25.60;36.80
19908;DHT22;10116;53.112;7.356;2023-03-21T05:49:38;25.70;38.80
19908;DHT22;10116;53.112;7.356;2023-03-21T05:52:04;25.70;38.10
19908;DHT22;10116;53.112;7.356;2023-03-21T05:54:30;25.70;38.60
19908;DHT22;10116;53.112;7.356;2023-03-21T05:56:55;25.80;50.60
19908;DHT22;10116;53.112;7.356;2023-03-21T05:59:21;25.80;38.50
19908;DHT22;10116;53.112;7.356;2023-03-21T06:01:46;25.80;38.90
19908;DHT22;10116;53.112;7.356;2023-03-21T06:04:12;25.80;39.00
19908;DHT22;10116;53.112;7.356;2023-03-21T06:06:38;25.80;39.20
19908;DHT22;10116;53.112;7.356;2023-03-21T06:09:03;25.80;38.60
19908;DHT22;10116;53.112;7.356;2023-03-21T06:11:32;25.80;39.10
19908;DHT22;10116;53.112;7.356;2023-03-21T06:13:58;25.80;50.60
19908;DHT22;10116;53.112;7.356;2023-03-21T06:16:24;25.80;38.40
19908;DHT22;10116;53.112;7.356;2023-03-21T06:18:50;25.80;38.70
19908;DHT22;10116;53.112;7.356;2023-03-21T06:21:15;25.80;37.90
19908;DHT22;10116;53.112;7.356;2023-03-21T06:23:41;25.70;38.00
19908;DHT22;10116;53.112;7.356;2023-03-21T06:26:07;25.70;38.00
19908;DHT22;10116;53.112;7.356;2023-03-21T06:28:32;25.70;37.60
19908;DHT22;10116;53.112;7.356;2023-03-21T06:30:58;25.70;37.80
19908;DHT22;10116;53.112;7.356;2023-03-21T06:33:24;25.70;37.70
19908;DHT22;10116;53.112;7.356;2023-03-21T06:35:55;25.70;37.00
19908;DHT22;10116;53.112;7.356;2023-03-21T06:38:21;25.60;37.00
19908;DHT22;10116;53.112;7.356;2023-03-21T06:40:47;25.60;36.00
19908;DHT22;10116;53.112;7.356;2023-03-21T06:43:13;25.60;36.20
19908;DHT22;10116;53.112;7.356;2023-03-21T06:45:39;25.60;36.70
19908;DHT22;10116;53.112;7.356;2023-03-21T06:48:05;25.60;37.10
19908;DHT22;10116;53.112;7.356;2023-03-21T06:50:30;25.70;37.20
19908;DHT22;10116;53.112;7.356;2023-03-21T06:52:56;25.70;38.20
19908;DHT22;10116;53.112;7.356;2023-03-21T06:55:24;25.70;37.90
19908;DHT22;10116;53.112;7.356;2023-03-21T06:57:52;25.80;38.30
19908;DHT22;10116;53.112;7.356;2023-03-21T07:00:18;25.80;38.00
19908;DHT22;10116;53.112;7.356;2023-03-21T07:02:44;25.80;38.50
19908;DHT22;10116;53.112;7.356;2023-03-21T07:05:11;25.80;38.50
19908;DHT22;10116;53.112;7.356;2023-03-21T07:07:37;25.80;38.80
19908;DHT22;10116;53.112;7.356;2023-03-21T07:10:03;25.80;38.20
19908;DHT22;10116;53.112;7.356;2023-03-21T07:12:29;25.80;38.30
19908;DHT22;10116;53.112;7.356;2023-03-21T07:14:58;25.70;38.30
19908;DHT22;10116;53.112;7.356;2023-03-21T07:17:25;25.70;37.80
19908;DHT22;10116;53.112;7.356;2023-03-21T07:19:50;25.70;37.80
19908;DHT22;10116;53.112;7.356;2023-03-21T07:22:16;25.70;38.40
19908;DHT22;10116;53.112;7.356;2023-03-21T07:24:42;25.70;37.60
19908;DHT22;10116;53.112;7.356;2023-03-21T07:27:08;25.60;37.10
19908;DHT22;10116;53.112;7.356;2023-03-21T07:29:34;25.60;37.10
19908;DHT22;10116;53.112;7.356;2023-03-21T07:31:59;25.60;37.20
19908;DHT22;10116;53.112;7.356;2023-03-21T07:34:26;25.60;37.20
19908;DHT22;10116;53.112;7.356;2023-03-21T07:36:56;25.50;36.70
19908;DHT22;10116;53.112;7.356;2023-03-21T07:39:22;25.50;36.30
19908;DHT22;10116;53.112;7.356;2023-03-21T07:41:47;25.60;36.60
19908;DHT22;10116;53.112;7.356;2023-03-21T07:44:13;25.60;37.80
19908;DHT22;10116;53.112;7.356;2023-03-21T07:46:39;25.60;37.90
19908;DHT22;10116;53.112;7.356;2023-03-21T07:49:04;25.60;39.00
19908;DHT22;10116;53.112;7.356;2023-03-21T07:51:30;25.60;38.60
19908;DHT22;10116;53.112;7.356;2023-03-21T07:53:56;25.60;40.40
19908;DHT22;10116;53.112;7.356;2023-03-21T07:56:21;25.60;39.20
19908;DHT22;10116;53.112;7.356;2023-03-21T07:58:47;25.60;38.30
19908;DHT22;10116;53.112;7.356;2023-03-21T08:01:13;25.60;38.50
19908;DHT22;10116;53.112;7.356;2023-03-21T08:03:38;25.60;39.20
19908;DHT22;10116;53.112;7.356;2023-03-21T08:06:04;25.60;38.70
19908;DHT22;10116;53.112;7.356;2023-03-21T08:08:30;25.60;38.70
19908;DHT22;10116;53.112;7.356;2023-03-21T08:10:55;25.60;38.50
19908;DHT22;10116;53.112;7.356;2023-03-21T08:13:21;25.50;38.50
19908;DHT22;10116;53.112;7.356;2023-03-21T08:15:47;25.50;37.90
19908;DHT22;10116;53.112;7.356;2023-03-21T08:18:14;25.50;37.60
19908;DHT22;10116;53.112;7.356;2023-03-21T08:20:39;25.50;38.20
19908;DHT22;10116;53.112;7.356;2023-03-21T08:23:05;25.40;38.00
19908;DHT22;10116;53.112;7.356;2023-03-21T08:25:31;25.40;38.20
19908;DHT22;10116;53.112;7.356;2023-03-21T08:27:57;25.40;37.70
19908;DHT22;10116;53.112;7.356;2023-03-21T08:30:24;25.40;37.80
19908;DHT22;10116;53.112;7.356;2023-03-21T08:32:50;25.40;38.30
19908;DHT22;10116;53.112;7.356;2023-03-21T08:35:20;25.30;38.50
19908;DHT22;10116;53.112;7.356;2023-03-21T08:37:46;25.40;37.60
19908;DHT22;10116;53.112;7.356;2023-03-21T08:40:16;25.40;37.90
19908;DHT22;10116;53.112;7.356;2023-03-21T08:42:42;25.40;37.50
19908;DHT22;10116;53.112;7.356;2023-03-21T08:45:09;25.40;38.10
19908;DHT22;10116;53.112;7.356;2023-03-21T08:47:35;25.40;38.40
19908;DHT22;10116;53.112;7.356;2023-03-21T08:50:01;25.40;39.20
19908;DHT22;10116;53.112;7.356;2023-03-21T08:52:27;25.40;39.80
19908;DHT22;10116;53.112;7.356;2023-03-21T08:54:53;25.40;39.10
19908;DHT22;10116;53.112;7.356;2023-03-21T08:57:19;25.40;40.30
19908;DHT22;10116;53.112;7.356;2023-03-21T08:59:45;25.40;39.90
19908;DHT22;10116;53.112;7.356;2023-03-21T09:02:15;25.40;40.30
19908;DHT22;10116;53.112;7.356;2023-03-21T09:04:42;25.40;39.80
19908;DHT22;10116;53.112;7.356;2023-03-21T09:07:09;25.40;39.70
19908;DHT22;10116;53.112;7.356;2023-03-21T09:09:37;24.60;33.10
19908;DHT22;10116;53.112;7.356;2023-03-21T09:12:03;24.50;30.70
19908;DHT22;10116;53.112;7.356;2023-03-21T09:14:29;24.40;31.70
19908;DHT22;10116;53.112;7.356;2023-03-21T09:16:54;24.50;33.20
19908;DHT22;10116;53.112;7.356;2023-03-21T09:19:20;24.50;32.60
19908;DHT22;10116;53.112;7.356;2023-03-21T09:21:46;24.50;33.70
19908;DHT22;10116;53.112;7.356;2023-03-21T09:24:12;24.60;34.40
19908;DHT22;10116;53.112;7.356;2023-03-21T09:26:39;24.60;35.30
19908;DHT22;10116;53.112;7.356;2023-03-21T09:29:06;24.60;35.80
19908;DHT22;10116;53.112;7.356;2023-03-21T09:31:32;24.60;35.70
19908;DHT22;10116;53.112;7.356;2023-03-21T09:33:58;24.60;35.90
19908;DHT22;10116;53.112;7.356;2023-03-21T09:36:24;24.60;36.00
19908;DHT22;10116;53.112;7.356;2023-03-21T09:38:52;24.60;36.30
19908;DHT22;10116;53.112;7.356;2023-03-21T09:42:39;24.60;36.70
19908;DHT22;10116;53.112;7.356;2023-03-21T09:45:23;24.60;37.10
19908;DHT22;10116;53.112;7.356;2023-03-21T09:47:43;24.60;38.60
19908;DHT22;10116;53.112;7.356;2023-03-21T09:50:31;24.60;38.40
19908;DHT22;10116;53.112;7.356;2023-03-21T09:53:24;24.70;39.60
19908;DHT22;10116;53.112;7.356;2023-03-21T09:55:48;24.80;40.00
19908;DHT22;10116;53.112;7.356;2023-03-21T09:58:25;24.80;41.00
19908;DHT22;10116;53.112;7.356;2023-03-21T10:01:12;24.80;41.50
19908;DHT22;10116;53.112;7.356;2023-03-21T10:03:53;24.80;41.80
19908;DHT22;10116;53.112;7.356;2023-03-21T10:06:22;24.90;42.60
19908;DHT22;10116;53.112;7.356;2023-03-21T10:09:18;24.90;42.60
19908;DHT22;10116;53.112;7.356;2023-03-21T10:11:59;24.90;42.60
19908;DHT22;10116;53.112;7.356;2023-03-21T10:14:36;24.90;42.90
19908;DHT22;10116;53.112;7.356;2023-03-21T10:17:36;24.90;50.30
19908;DHT22;10116;53.112;7.356;2023-03-21T10:20:20;24.90;43.60
19908;DHT22;10116;53.112;7.356;2023-03-21T10:22:49;24.90;42.90
19908;DHT22;10116;53.112;7.356;2023-03-21T10:25:19;24.90;43.20
19908;DHT22;10116;53.112;7.356;2023-03-21T10:27:45;24.90;43.20
19908;DHT22;10116;53.112;7.356;2023-03-21T10:30:31;24.90;44.60
19908;DHT22;10116;53.112;7.356;2023-03-21T10:33:01;24.90;43.70
19908;DHT22;10116;53.112;7.356;2023-03-21T10:35:30;25.00;44.60
19908;DHT22;10116;53.112;7.356;2023-03-21T10:37:59;25.00;44.40
19908;DHT22;10116;53.112;7.356;2023-03-21T10:40:25;25.00;45.50
19908;DHT22;10116;53.112;7.356;2023-03-21T10:42:54;25.00;57.00
19908;DHT22;10116;53.112;7.356;2023-03-21T10:45:21;25.10;46.60
19908;DHT22;10116;53.112;7.356;2023-03-21T10:47:48;25.10;46.50
19908;DHT22;10116;53.112;7.356;2023-03-21T10:50:16;25.20;47.40
19908;DHT22;10116;53.112;7.356;2023-03-21T10:52:48;25.20;47.20
19908;DHT22;10116;53.112;7.356;2023-03-21T10:55:29;25.20;48.00
19908;DHT22;10116;53.112;7.356;2023-03-21T10:58:07;25.20;48.00
19908;DHT22;10116;53.112;7.356;2023-03-21T11:00:39;25.20;47.90
19908;DHT22;10116;53.112;7.356;2023-03-21T11:03:07;25.30;48.30
19908;DHT22;10116;53.112;7.356;2023-03-21T11:05:40;25.30;48.60
19908;DHT22;10116;53.112;7.356;2023-03-21T11:08:12;25.30;48.50
19908;DHT22;10116;53.112;7.356;2023-03-21T11:13:33;25.30;48.50
19908;DHT22;10116;53.112;7.356;2023-03-21T11:16:22;25.30;49.20
19908;DHT22;10116;53.112;7.356;2023-03-21T11:18:50;25.30;48.90
19908;DHT22;10116;53.112;7.356;2023-03-21T11:21:16;25.30;48.90
19908;DHT22;10116;53.112;7.356;2023-03-21T11:23:44;25.30;49.00
19908;DHT22;10116;53.112;7.356;2023-03-21T11:26:28;25.40;49.60
19908;DHT22;10116;53.112;7.356;2023-03-21T11:28:55;25.40;49.80
19908;DHT22;10116;53.112;7.356;2023-03-21T11:31:21;25.30;49.90
19908;DHT22;10116;53.112;7.356;2023-03-21T11:33:55;25.40;49.50
19908;DHT22;10116;53.112;7.356;2023-03-21T11:38:52;25.40;49.60
19908;DHT22;10116;53.112;7.356;2023-03-21T11:41:33;25.40;49.60
19908;DHT22;10116;53.112;7.356;2023-03-21T11:43:59;25.40;49.80
19908;DHT22;10116;53.112;7.356;2023-03-21T11:46:28;25.40;50.30
19908;DHT22;10116;53.112;7.356;2023-03-21T11:48:54;25.50;50.50
19908;DHT22;10116;53.112;7.356;2023-03-21T11:54:17;25.50;50.80
19908;DHT22;10116;53.112;7.356;2023-03-21T11:57:07;25.60;51.50
19908;DHT22;10116;53.112;7.356;2023-03-21T12:00:12;25.60;51.40
19908;DHT22;10116;53.112;7.356;2023-03-21T12:05:26;25.60;51.70
19908;DHT22;10116;53.112;7.356;2023-03-21T12:08:23;25.60;51.70
19908;DHT22;10116;53.112;7.356;2023-03-21T12:11:16;25.70;52.20
19908;DHT22;10116;53.112;7.356;2023-03-21T12:22:46;25.70;52.30
19908;DHT22;10116;53.112;7.356;2023-03-21T12:33:34;25.70;52.80
19908;DHT22;10116;53.112;7.356;2023-03-21T12:39:07;25.80;51.70
19908;DHT22;10116;53.112;7.356;2023-03-21T12:41:43;25.80;52.40
19908;DHT22;10116;53.112;7.356;2023-03-21T12:44:19;25.90;52.80
19908;DHT22;10116;53.112;7.356;2023-03-21T12:47:00;25.90;53.30
19908;DHT22;10116;53.112;7.356;2023-03-21T12:50:04;25.90;52.90
19908;DHT22;10116;53.112;7.356;2023-03-21T12:52:34;25.90;52.90
19908;DHT22;10116;53.112;7.356;2023-03-21T12:55:20;25.90;53.10
19908;DHT22;10116;53.112;7.356;2023-03-21T12:58:09;25.90;52.80
19908;DHT22;10116;53.112;7.356;2023-03-21T13:01:01;25.90;53.40
19908;DHT22;10116;53.112;7.356;2023-03-21T13:03:34;25.90;54.10
19908;DHT22;10116;53.112;7.356;2023-03-21T13:06:06;26.00;54.10
19908;DHT22;10116;53.112;7.356;2023-03-21T13:08:59;26.00;54.10
19908;DHT22;10116;53.112;7.356;2023-03-21T13:11:28;26.00;54.00
19908;DHT22;10116;53.112;7.356;2023-03-21T13:14:11;26.00;53.20
19908;DHT22;10116;53.112;7.356;2023-03-21T13:17:10;26.00;52.70
19908;DHT22;10116;53.112;7.356;2023-03-21T13:19:49;26.00;53.40
19908;DHT22;10116;53.112;7.356;2023-03-21T13:22:23;26.00;52.80
19908;DHT22;10116;53.112;7.356;2023-03-21T13:25:04;26.00;52.90
19908;DHT22;10116;53.112;7.356;2023-03-21T13:27:37;26.00;52.40
19908;DHT22;10116;53.112;7.356;2023-03-21T13:30:22;25.90;52.90
19908;DHT22;10116;53.112;7.356;2023-03-21T13:32:54;25.90;52.30
19908;DHT22;10116;53.112;7.356;2023-03-21T13:35:31;25.90;51.90
19908;DHT22;10116;53.112;7.356;2023-03-21T13:38:05;25.90;51.10
19908;DHT22;10116;53.112;7.356;2023-03-21T13:40:56;25.90;51.30
19908;DHT22;10116;53.112;7.356;2023-03-21T13:43:39;25.90;51.30
19908;DHT22;10116;53.112;7.356;2023-03-21T13:54:17;25.90;51.40
19908;DHT22;10116;53.112;7.356;2023-03-21T14:01:39;25.80;51.00
19908;DHT22;10116;53.112;7.356;2023-03-21T14:06:45;25.80;50.70
19908;DHT22;10116;53.112;7.356;2023-03-21T14:12:02;25.80;51.80
19908;DHT22;10116;53.112;7.356;2023-03-21T14:14:38;25.90;50.50
19908;DHT22;10116;53.112;7.356;2023-03-21T14:17:12;25.90;51.40
19908;DHT22;10116;53.112;7.356;2023-03-21T14:19:38;25.90;51.40
19908;DHT22;10116;53.112;7.356;2023-03-21T14:22:10;25.90;53.10
19908;DHT22;10116;53.112;7.356;2023-03-21T14:24:36;26.00;53.00
19908;DHT22;10116;53.112;7.356;2023-03-21T14:27:04;26.00;53.30
19908;DHT22;10116;53.112;7.356;2023-03-21T14:29:32;26.10;53.30
19908;DHT22;10116;53.112;7.356;2023-03-21T14:31:59;26.10;53.50
19908;DHT22;10116;53.112;7.356;2023-03-21T14:34:26;26.10;53.50
19908;DHT22;10116;53.112;7.356;2023-03-21T14:36:53;26.10;53.30
19908;DHT22;10116;53.112;7.356;2023-03-21T14:39:25;26.20;54.20
19908;DHT22;10116;53.112;7.356;2023-03-21T14:41:54;26.20;53.80
19908;DHT22;10116;53.112;7.356;2023-03-21T14:47:05;26.20;53.70
19908;DHT22;10116;53.112;7.356;2023-03-21T14:49:33;26.20;53.20
19908;DHT22;10116;53.112;7.356;2023-03-21T14:52:04;26.20;53.40
19908;DHT22;10116;53.112;7.356;2023-03-21T14:54:32;26.10;53.40
19908;DHT22;10116;53.112;7.356;2023-03-21T14:57:02;26.10;53.00
19908;DHT22;10116;53.112;7.356;2023-03-21T14:59:32;26.10;53.00
19908;DHT22;10116;53.112;7.356;2023-03-21T15:02:01;26.10;52.40
19908;DHT22;10116;53.112;7.356;2023-03-21T15:04:28;26.10;52.20
19908;DHT22;10116;53.112;7.356;2023-03-21T15:06:59;26.10;51.80
19908;DHT22;10116;53.112;7.356;2023-03-21T15:09:30;26.10;52.90
19908;DHT22;10116;53.112;7.356;2023-03-21T15:11:58;26.10;52.50
19908;DHT22;10116;53.112;7.356;2023-03-21T15:14:27;26.20;52.80
19908;DHT22;10116;53.112;7.356;2023-03-21T15:16:55;26.20;52.80
19908;DHT22;10116;53.112;7.356;2023-03-21T15:19:27;26.20;53.40
19908;DHT22;10116;53.112;7.356;2023-03-21T15:22:05;26.30;53.30
19908;DHT22;10116;53.112;7.356;2023-03-21T15:24:39;26.30;53.90
19908;DHT22;10116;53.112;7.356;2023-03-21T15:27:12;26.30;53.10
19908;DHT22;10116;53.112;7.356;2023-03-21T15:29:38;26.30;53.40
19908;DHT22;10116;53.112;7.356;2023-03-21T15:32:06;26.30;53.30
19908;DHT22;10116;53.112;7.356;2023-03-21T15:34:36;26.20;52.70
19908;DHT22;10116;53.112;7.356;2023-03-21T15:37:15;26.20;52.40
19908;DHT22;10116;53.112;7.356;2023-03-21T15:39:41;26.20;52.70
19908;DHT22;10116;53.112;7.356;2023-03-21T15:44:54;26.10;65.20
19908;DHT22;10116;53.112;7.356;2023-03-21T15:50:30;26.10;51.80
19908;DHT22;10116;53.112;7.356;2023-03-21T15:52:59;26.10;51.30
19908;DHT22;10116;53.112;7.356;2023-03-21T15:55:37;26.00;50.70
19908;DHT22;10116;53.112;7.356;2023-03-21T15:58:12;26.00;51.10
19908;DHT22;10116;53.112;7.356;2023-03-21T16:00:41;26.00;51.20
19908;DHT22;10116;53.112;7.356;2023-03-21T16:06:13;26.00;51.20
19908;DHT22;10116;53.112;7.356;2023-03-21T16:08:51;25.90;50.00
19908;DHT22;10116;53.112;7.356;2023-03-21T16:11:28;25.90;51.30
19908;DHT22;10116;53.112;7.356;2023-03-21T16:14:01;25.90;50.30
19908;DHT22;10116;53.112;7.356;2023-03-21T16:16:27;25.90;50.10
19908;DHT22;10116;53.112;7.356;2023-03-21T16:18:56;25.90;50.00
19908;DHT22;10116;53.112;7.356;2023-03-21T16:21:24;25.80;49.20
19908;DHT22;10116;53.112;7.356;2023-03-21T16:23:51;25.80;49.60
19908;DHT22;10116;53.112;7.356;2023-03-21T16:26:21;25.80;49.90
19908;DHT22;10116;53.112;7.356;2023-03-21T16:28:47;25.80;49.50
19908;DHT22;10116;53.112;7.356;2023-03-21T16:31:16;25.80;49.30
19908;DHT22;10116;53.112;7.356;2023-03-21T16:33:43;25.80;49.20
19908;DHT22;10116;53.112;7.356;2023-03-21T16:36:16;25.70;48.90
19908;DHT22;10116;53.112;7.356;2023-03-21T16:38:46;25.70;49.10
19908;DHT22;10116;53.112;7.356;2023-03-21T16:41:14;25.70;49.80
19908;DHT22;10116;53.112;7.356;2023-03-21T16:43:40;25.80;49.50
19908;DHT22;10116;53.112;7.356;2023-03-21T16:46:20;25.80;49.40
19908;DHT22;10116;53.112;7.356;2023-03-21T16:48:49;25.80;52.70
19908;DHT22;10116;53.112;7.356;2023-03-21T16:51:20;25.80;50.70
19908;DHT22;10116;53.112;7.356;2023-03-21T16:53:51;25.90;51.00
19908;DHT22;10116;53.112;7.356;2023-03-21T16:56:26;25.90;51.10
19908;DHT22;10116;53.112;7.356;2023-03-21T16:58:54;25.90;51.50
19908;DHT22;10116;53.112;7.356;2023-03-21T17:01:21;26.00;51.40
19908;DHT22;10116;53.112;7.356;2023-03-21T17:03:54;26.00;51.60
19908;DHT22;10116;53.112;7.356;2023-03-21T17:06:25;26.00;52.00
19908;DHT22;10116;53.112;7.356;2023-03-21T17:08:51;26.00;51.80
19908;DHT22;10116;53.112;7.356;2023-03-21T17:11:19;26.00;52.00
19908;DHT22;10116;53.112;7.356;2023-03-21T17:13:46;25.90;51.90
19908;DHT22;10116;53.112;7.356;2023-03-21T17:16:14;25.90;51.70